LNI781 WAFF-WAAA
Flight info
| Callsign | LNI781 |
|---|---|
| Flight time | 0h 57m |
| Altitude | 31000 |
| Route | NIVEK |
| Aircraft | B738/M-SDE2E3FGHIRWXY/LB1 |
Departure
| Time | 2026-04-27 08:31 |
|---|---|
| Airport | Mutiara - SIS Al-Jufrie Airport (WAFF) |
Arrival
| Time | 2026-04-27 09:28 |
|---|---|
| Airport | Sultan Hasanuddin International Airport (WAAA) |
| Time | Latitude | Longitude | Altitude | Speed | Heading |
|---|---|---|---|---|---|
| 2026-04-27 04:35 | -0.91762 | 119.90697 | 253 ft | 0 kts | 245° |
| 2026-04-27 08:21 | -0.91754 | 119.90712 | 275 ft | 4 kts | 237° |
| 2026-04-27 08:22 | -0.91738 | 119.90734 | 280 ft | 4 kts | 227° |
| 2026-04-27 08:22 | -0.91726 | 119.90746 | 280 ft | 1 kts | 225° |
| 2026-04-27 08:22 | -0.91725 | 119.90748 | 280 ft | 0 kts | 225° |
| 2026-04-27 08:25 | -0.91727 | 119.90746 | 280 ft | 1 kts | 219° |
| 2026-04-27 08:25 | -0.91748 | 119.90746 | 280 ft | 5 kts | 165° |
| 2026-04-27 08:25 | -0.91792 | 119.90780 | 278 ft | 11 kts | 132° |
| 2026-04-27 08:26 | -0.91849 | 119.90837 | 273 ft | 11 kts | 140° |
| 2026-04-27 08:26 | -0.91875 | 119.90903 | 273 ft | 9 kts | 76° |
| 2026-04-27 08:26 | -0.91878 | 119.90966 | 273 ft | 11 kts | 124° |
| 2026-04-27 08:26 | -0.91956 | 119.91010 | 269 ft | 16 kts | 155° |
| 2026-04-27 08:27 | -0.92071 | 119.91060 | 265 ft | 20 kts | 156° |
| 2026-04-27 08:27 | -0.92215 | 119.91125 | 256 ft | 25 kts | 155° |
| 2026-04-27 08:27 | -0.92390 | 119.91200 | 245 ft | 29 kts | 158° |
| 2026-04-27 08:27 | -0.92508 | 119.91235 | 243 ft | 6 kts | 160° |
| 2026-04-27 08:28 | -0.92514 | 119.91253 | 241 ft | 2 kts | 69° |
| 2026-04-27 08:28 | -0.92499 | 119.91256 | 241 ft | 3 kts | 341° |
| 2026-04-27 08:28 | -0.92474 | 119.91240 | 245 ft | 5 kts | 334° |
| 2026-04-27 08:28 | -0.92451 | 119.91229 | 247 ft | 0 kts | 334° |
| 2026-04-27 08:30 | -0.92402 | 119.91206 | 247 ft | 31 kts | 335° |
| 2026-04-27 08:30 | -0.91957 | 119.91009 | 269 ft | 106 kts | 336° |
| 2026-04-27 08:30 | -0.91085 | 119.90617 | 327 ft | 164 kts | 336° |
| 2026-04-27 08:31 | -0.90008 | 119.90145 | 1011 ft | 171 kts | 335° |
| 2026-04-27 08:31 | -0.88924 | 119.89646 | 1903 ft | 173 kts | 335° |
| 2026-04-27 08:31 | -0.87765 | 119.89161 | 2459 ft | 194 kts | 335° |
| 2026-04-27 08:31 | -0.86446 | 119.88549 | 2706 ft | 223 kts | 334° |
| 2026-04-27 08:32 | -0.84977 | 119.87849 | 3034 ft | 241 kts | 334° |
| 2026-04-27 08:32 | -0.83397 | 119.87100 | 3339 ft | 262 kts | 334° |
| 2026-04-27 08:32 | -0.81712 | 119.86306 | 3977 ft | 271 kts | 335° |
| 2026-04-27 08:32 | -0.80001 | 119.85505 | 4866 ft | 273 kts | 335° |
| 2026-04-27 08:33 | -0.78272 | 119.84699 | 5709 ft | 276 kts | 335° |
| 2026-04-27 08:33 | -0.76513 | 119.83882 | 6495 ft | 280 kts | 335° |
| 2026-04-27 08:33 | -0.74731 | 119.83056 | 7248 ft | 284 kts | 336° |
| 2026-04-27 08:33 | -0.72925 | 119.82219 | 8030 ft | 288 kts | 336° |
| 2026-04-27 08:34 | -0.71128 | 119.81315 | 8791 ft | 293 kts | 325° |
| 2026-04-27 08:34 | -0.69768 | 119.79794 | 9527 ft | 299 kts | 297° |
| 2026-04-27 08:34 | -0.69216 | 119.77794 | 10241 ft | 305 kts | 272° |
| 2026-04-27 08:34 | -0.69531 | 119.75642 | 10483 ft | 327 kts | 248° |
| 2026-04-27 08:35 | -0.70744 | 119.73649 | 10699 ft | 347 kts | 229° |
| 2026-04-27 08:35 | -0.72569 | 119.72041 | 11151 ft | 355 kts | 213° |
| 2026-04-27 08:35 | -0.74723 | 119.70805 | 11788 ft | 358 kts | 206° |
| 2026-04-27 08:35 | -0.76968 | 119.69706 | 12457 ft | 361 kts | 204° |
| 2026-04-27 08:36 | -0.79226 | 119.68639 | 13092 ft | 365 kts | 204° |
| 2026-04-27 08:36 | -0.81529 | 119.67538 | 13708 ft | 369 kts | 205° |
| 2026-04-27 08:36 | -0.83849 | 119.66402 | 14255 ft | 373 kts | 205° |
| 2026-04-27 08:36 | -0.86174 | 119.65238 | 14825 ft | 376 kts | 206° |
| 2026-04-27 08:37 | -0.88516 | 119.64046 | 15392 ft | 379 kts | 206° |
| 2026-04-27 08:37 | -0.90869 | 119.62834 | 15942 ft | 383 kts | 206° |
| 2026-04-27 08:37 | -0.93245 | 119.61602 | 16468 ft | 386 kts | 206° |
| 2026-04-27 08:37 | -0.95638 | 119.60357 | 17017 ft | 389 kts | 206° |
| 2026-04-27 08:38 | -0.98051 | 119.59099 | 17537 ft | 393 kts | 206° |
| 2026-04-27 08:38 | -1.00486 | 119.57829 | 18044 ft | 397 kts | 206° |
| 2026-04-27 08:38 | -1.02944 | 119.56546 | 18502 ft | 400 kts | 206° |
| 2026-04-27 08:38 | -1.05418 | 119.55254 | 18971 ft | 402 kts | 206° |
| 2026-04-27 08:39 | -1.07902 | 119.53957 | 19428 ft | 405 kts | 206° |
| 2026-04-27 08:39 | -1.10405 | 119.52651 | 19845 ft | 408 kts | 206° |
| 2026-04-27 08:39 | -1.12930 | 119.51333 | 20280 ft | 410 kts | 206° |
| 2026-04-27 08:39 | -1.15462 | 119.50011 | 20724 ft | 412 kts | 206° |
| 2026-04-27 08:40 | -1.18017 | 119.48677 | 21172 ft | 415 kts | 206° |
| 2026-04-27 08:40 | -1.20586 | 119.47336 | 21595 ft | 418 kts | 206° |
| 2026-04-27 08:40 | -1.23166 | 119.45989 | 21999 ft | 420 kts | 206° |
| 2026-04-27 08:40 | -1.25763 | 119.44633 | 22404 ft | 423 kts | 206° |
| 2026-04-27 08:41 | -1.28381 | 119.43267 | 22796 ft | 426 kts | 206° |
| 2026-04-27 08:41 | -1.31014 | 119.41892 | 23172 ft | 428 kts | 206° |
| 2026-04-27 08:41 | -1.33663 | 119.40510 | 23517 ft | 431 kts | 206° |
| 2026-04-27 08:41 | -1.36332 | 119.39116 | 23832 ft | 433 kts | 206° |
| 2026-04-27 08:42 | -1.39003 | 119.37722 | 24172 ft | 435 kts | 206° |
| 2026-04-27 08:42 | -1.41686 | 119.36321 | 24489 ft | 436 kts | 206° |
| 2026-04-27 08:42 | -1.44386 | 119.34911 | 24802 ft | 438 kts | 206° |
| 2026-04-27 08:42 | -1.47096 | 119.33496 | 25104 ft | 440 kts | 206° |
| 2026-04-27 08:43 | -1.49816 | 119.32075 | 25401 ft | 442 kts | 206° |
| 2026-04-27 08:43 | -1.52517 | 119.30665 | 25710 ft | 444 kts | 206° |
| 2026-04-27 08:43 | -1.55295 | 119.29215 | 26005 ft | 446 kts | 206° |
| 2026-04-27 08:43 | -1.58051 | 119.27776 | 26299 ft | 448 kts | 206° |
| 2026-04-27 08:44 | -1.60780 | 119.26350 | 26572 ft | 450 kts | 206° |
| 2026-04-27 08:44 | -1.63561 | 119.24898 | 26856 ft | 452 kts | 206° |
| 2026-04-27 08:44 | -1.66353 | 119.23440 | 27125 ft | 454 kts | 206° |
| 2026-04-27 08:44 | -1.69155 | 119.21976 | 27404 ft | 455 kts | 206° |
| 2026-04-27 08:45 | -1.71968 | 119.20507 | 27662 ft | 457 kts | 206° |
| 2026-04-27 08:45 | -1.74796 | 119.19030 | 27924 ft | 459 kts | 206° |
| 2026-04-27 08:45 | -1.77635 | 119.17548 | 28181 ft | 461 kts | 206° |
| 2026-04-27 08:45 | -1.80481 | 119.16061 | 28438 ft | 463 kts | 206° |
| 2026-04-27 08:46 | -1.83341 | 119.14567 | 28684 ft | 465 kts | 206° |
| 2026-04-27 08:46 | -1.86214 | 119.13066 | 28926 ft | 466 kts | 206° |
| 2026-04-27 08:46 | -1.89095 | 119.11561 | 29169 ft | 468 kts | 206° |
| 2026-04-27 08:46 | -1.91983 | 119.10052 | 29404 ft | 470 kts | 206° |
| 2026-04-27 08:47 | -1.94882 | 119.08538 | 29687 ft | 470 kts | 206° |
| 2026-04-27 08:47 | -1.97774 | 119.07026 | 30021 ft | 469 kts | 206° |
| 2026-04-27 08:47 | -2.00661 | 119.05518 | 30353 ft | 467 kts | 206° |
| 2026-04-27 08:47 | -2.03530 | 119.04018 | 30660 ft | 466 kts | 206° |
| 2026-04-27 08:48 | -2.06401 | 119.02518 | 30823 ft | 467 kts | 206° |
| 2026-04-27 08:48 | -2.09291 | 119.01008 | 30815 ft | 469 kts | 206° |
| 2026-04-27 08:48 | -2.15050 | 118.97998 | 30818 ft | 465 kts | 206° |
| 2026-04-27 08:49 | -2.20777 | 118.95005 | 30823 ft | 464 kts | 206° |
| 2026-04-27 08:49 | -2.26498 | 118.92015 | 30820 ft | 463 kts | 206° |
| 2026-04-27 08:50 | -2.32216 | 118.89027 | 30816 ft | 464 kts | 206° |
| 2026-04-27 08:50 | -2.37935 | 118.86036 | 30824 ft | 464 kts | 206° |
| 2026-04-27 08:51 | -2.43657 | 118.83045 | 30825 ft | 464 kts | 206° |
| 2026-04-27 08:51 | -2.49379 | 118.80052 | 30825 ft | 465 kts | 206° |
| 2026-04-27 08:52 | -2.55112 | 118.77054 | 30824 ft | 465 kts | 206° |
| 2026-04-27 08:52 | -2.60849 | 118.74053 | 30826 ft | 466 kts | 206° |
| 2026-04-27 08:53 | -2.66863 | 118.71880 | 30839 ft | 459 kts | 182° |
| 2026-04-27 08:53 | -2.70031 | 118.72012 | 30828 ft | 455 kts | 167° |
| 2026-04-27 08:53 | -2.73105 | 118.72726 | 30836 ft | 454 kts | 163° |
| 2026-04-27 08:54 | -2.79228 | 118.74343 | 30832 ft | 455 kts | 163° |
| 2026-04-27 08:54 | -2.85313 | 118.75943 | 30829 ft | 455 kts | 163° |
| 2026-04-27 08:55 | -2.91455 | 118.77505 | 30836 ft | 456 kts | 164° |
| 2026-04-27 08:55 | -2.97528 | 118.79026 | 30830 ft | 443 kts | 164° |
| 2026-04-27 08:56 | -3.03491 | 118.80518 | 30847 ft | 442 kts | 164° |
| 2026-04-27 08:56 | -3.06482 | 118.81267 | 30586 ft | 444 kts | 163° |
| 2026-04-27 08:56 | -3.09467 | 118.82016 | 30237 ft | 439 kts | 163° |
| 2026-04-27 08:57 | -3.15345 | 118.83489 | 29303 ft | 432 kts | 163° |
| 2026-04-27 08:57 | -3.18247 | 118.84216 | 28814 ft | 429 kts | 163° |
| 2026-04-27 08:57 | -3.21128 | 118.84939 | 28341 ft | 425 kts | 163° |
| 2026-04-27 08:58 | -3.23987 | 118.85656 | 27881 ft | 422 kts | 163° |
| 2026-04-27 08:58 | -3.26821 | 118.86367 | 27423 ft | 418 kts | 163° |
| 2026-04-27 08:58 | -3.29632 | 118.87072 | 26968 ft | 415 kts | 163° |
| 2026-04-27 08:58 | -3.32427 | 118.87773 | 26505 ft | 413 kts | 163° |
| 2026-04-27 08:59 | -3.35208 | 118.88471 | 26059 ft | 410 kts | 164° |
| 2026-04-27 08:59 | -3.37963 | 118.89162 | 25624 ft | 408 kts | 164° |
| 2026-04-27 08:59 | -3.40711 | 118.89852 | 25154 ft | 406 kts | 164° |
| 2026-04-27 08:59 | -3.43412 | 118.90529 | 24722 ft | 404 kts | 164° |
| 2026-04-27 09:00 | -3.46134 | 118.91213 | 24264 ft | 403 kts | 164° |
| 2026-04-27 09:00 | -3.48850 | 118.91894 | 23826 ft | 401 kts | 164° |
| 2026-04-27 09:00 | -3.51552 | 118.92572 | 23378 ft | 400 kts | 164° |
| 2026-04-27 09:00 | -3.54265 | 118.93166 | 22861 ft | 400 kts | 170° |
| 2026-04-27 09:01 | -3.57011 | 118.93327 | 22734 ft | 391 kts | 179° |
| 2026-04-27 09:01 | -3.59699 | 118.93239 | 22601 ft | 382 kts | 181° |
| 2026-04-27 09:01 | -3.62368 | 118.93119 | 22507 ft | 389 kts | 181° |
| 2026-04-27 09:01 | -3.65098 | 118.92992 | 22396 ft | 396 kts | 181° |
| 2026-04-27 09:02 | -3.67863 | 118.92868 | 22274 ft | 397 kts | 181° |
| 2026-04-27 09:02 | -3.70608 | 118.92753 | 22152 ft | 394 kts | 180° |
| 2026-04-27 09:02 | -3.73339 | 118.92644 | 22039 ft | 392 kts | 180° |
| 2026-04-27 09:02 | -3.76066 | 118.92539 | 21934 ft | 392 kts | 180° |
| 2026-04-27 09:03 | -3.78798 | 118.92437 | 21821 ft | 393 kts | 180° |
| 2026-04-27 09:03 | -3.81528 | 118.92335 | 21700 ft | 392 kts | 180° |
| 2026-04-27 09:03 | -3.84246 | 118.92235 | 21593 ft | 391 kts | 180° |
| 2026-04-27 09:03 | -3.86961 | 118.92134 | 21483 ft | 390 kts | 180° |
| 2026-04-27 09:04 | -3.89672 | 118.92034 | 21373 ft | 389 kts | 180° |
| 2026-04-27 09:04 | -3.92375 | 118.91933 | 21238 ft | 387 kts | 180° |
| 2026-04-27 09:04 | -3.95075 | 118.91833 | 20986 ft | 388 kts | 180° |
| 2026-04-27 09:04 | -3.97764 | 118.91734 | 20751 ft | 386 kts | 181° |
| 2026-04-27 09:05 | -4.00445 | 118.91634 | 20517 ft | 385 kts | 181° |
| 2026-04-27 09:05 | -4.03117 | 118.91535 | 20280 ft | 383 kts | 181° |
| 2026-04-27 09:05 | -4.05779 | 118.91436 | 20048 ft | 382 kts | 181° |
| 2026-04-27 09:05 | -4.08427 | 118.91338 | 19824 ft | 380 kts | 181° |
| 2026-04-27 09:06 | -4.11070 | 118.91240 | 19595 ft | 379 kts | 181° |
| 2026-04-27 09:06 | -4.13698 | 118.91142 | 19377 ft | 378 kts | 181° |
| 2026-04-27 09:06 | -4.16325 | 118.91044 | 19150 ft | 377 kts | 181° |
| 2026-04-27 09:06 | -4.18941 | 118.90947 | 18930 ft | 376 kts | 181° |
| 2026-04-27 09:07 | -4.21550 | 118.90874 | 18705 ft | 374 kts | 180° |
| 2026-04-27 09:07 | -4.24142 | 118.90863 | 18483 ft | 373 kts | 179° |
| 2026-04-27 09:07 | -4.26699 | 118.90875 | 18266 ft | 371 kts | 179° |
| 2026-04-27 09:07 | -4.29278 | 118.90890 | 18038 ft | 370 kts | 179° |
| 2026-04-27 09:08 | -4.31848 | 118.90902 | 17869 ft | 369 kts | 179° |
| 2026-04-27 09:08 | -4.34426 | 118.90910 | 17830 ft | 370 kts | 179° |
| 2026-04-27 09:08 | -4.36990 | 118.90914 | 17825 ft | 368 kts | 179° |
| 2026-04-27 09:08 | -4.39551 | 118.90917 | 17823 ft | 368 kts | 179° |
| 2026-04-27 09:09 | -4.42114 | 118.90918 | 17818 ft | 369 kts | 179° |
| 2026-04-27 09:09 | -4.44682 | 118.90918 | 17821 ft | 369 kts | 179° |
| 2026-04-27 09:09 | -4.47250 | 118.90918 | 17821 ft | 369 kts | 179° |
| 2026-04-27 09:09 | -4.49819 | 118.90918 | 17824 ft | 369 kts | 179° |
| 2026-04-27 09:10 | -4.52391 | 118.90918 | 17821 ft | 369 kts | 179° |
| 2026-04-27 09:10 | -4.54963 | 118.90918 | 17821 ft | 369 kts | 179° |
| 2026-04-27 09:10 | -4.57532 | 118.90918 | 17820 ft | 369 kts | 179° |
| 2026-04-27 09:10 | -4.60100 | 118.90918 | 17825 ft | 369 kts | 179° |
| 2026-04-27 09:11 | -4.62671 | 118.90917 | 17819 ft | 369 kts | 179° |
| 2026-04-27 09:11 | -4.65235 | 118.90917 | 17820 ft | 369 kts | 179° |
| 2026-04-27 09:11 | -4.67801 | 118.90917 | 17822 ft | 369 kts | 179° |
| 2026-04-27 09:11 | -4.70366 | 118.90917 | 17817 ft | 368 kts | 179° |
| 2026-04-27 09:12 | -4.72922 | 118.90917 | 17817 ft | 368 kts | 179° |
| 2026-04-27 09:12 | -4.75485 | 118.90917 | 17821 ft | 368 kts | 179° |
| 2026-04-27 09:12 | -4.77221 | 118.90917 | 17718 ft | 370 kts | 179° |
| 2026-04-27 09:12 | -4.79792 | 118.90918 | 17461 ft | 369 kts | 179° |
| 2026-04-27 09:13 | -4.82352 | 118.90918 | 17228 ft | 365 kts | 179° |
| 2026-04-27 09:13 | -4.84876 | 118.90918 | 17026 ft | 362 kts | 179° |
| 2026-04-27 09:13 | -4.87396 | 118.90918 | 16812 ft | 362 kts | 179° |
| 2026-04-27 09:13 | -4.89911 | 118.90918 | 16598 ft | 361 kts | 179° |
| 2026-04-27 09:14 | -4.92418 | 118.90918 | 16390 ft | 360 kts | 179° |
| 2026-04-27 09:14 | -4.94921 | 118.90918 | 16180 ft | 359 kts | 179° |
| 2026-04-27 09:14 | -4.97386 | 118.90918 | 15974 ft | 358 kts | 179° |
| 2026-04-27 09:14 | -4.99876 | 118.90918 | 15763 ft | 358 kts | 179° |
| 2026-04-27 09:15 | -5.02361 | 118.90917 | 15558 ft | 357 kts | 179° |
| 2026-04-27 09:15 | -5.04841 | 118.90917 | 15352 ft | 356 kts | 179° |
| 2026-04-27 09:15 | -5.07314 | 118.90917 | 15139 ft | 355 kts | 179° |
| 2026-04-27 09:15 | -5.09781 | 118.90917 | 14933 ft | 354 kts | 179° |
| 2026-04-27 09:16 | -5.12238 | 118.90917 | 14691 ft | 354 kts | 179° |
| 2026-04-27 09:16 | -5.14700 | 118.90917 | 14402 ft | 354 kts | 179° |
| 2026-04-27 09:16 | -5.17157 | 118.90917 | 14127 ft | 352 kts | 179° |
| 2026-04-27 09:16 | -5.19605 | 118.90917 | 13839 ft | 351 kts | 179° |
| 2026-04-27 09:17 | -5.22037 | 118.90917 | 13546 ft | 348 kts | 179° |
| 2026-04-27 09:17 | -5.24431 | 118.91030 | 13224 ft | 342 kts | 167° |
| 2026-04-27 09:17 | -5.26598 | 118.91921 | 12954 ft | 335 kts | 145° |
| 2026-04-27 09:17 | -5.28256 | 118.93530 | 12621 ft | 333 kts | 124° |
| 2026-04-27 09:18 | -5.29263 | 118.95613 | 12213 ft | 334 kts | 105° |
| 2026-04-27 09:18 | -5.29561 | 118.97918 | 11869 ft | 332 kts | 91° |
| 2026-04-27 09:18 | -5.29576 | 119.00228 | 11489 ft | 331 kts | 89° |
| 2026-04-27 09:18 | -5.29544 | 119.02534 | 11099 ft | 329 kts | 89° |
| 2026-04-27 09:19 | -5.29505 | 119.04828 | 10707 ft | 328 kts | 89° |
| 2026-04-27 09:19 | -5.29473 | 119.07115 | 10310 ft | 327 kts | 89° |
| 2026-04-27 09:19 | -5.29449 | 119.09368 | 9905 ft | 319 kts | 89° |
| 2026-04-27 09:19 | -5.29433 | 119.11524 | 9861 ft | 298 kts | 89° |
| 2026-04-27 09:20 | -5.29420 | 119.13509 | 9772 ft | 281 kts | 90° |
| 2026-04-27 09:20 | -5.29410 | 119.15475 | 9327 ft | 278 kts | 90° |
| 2026-04-27 09:20 | -5.29401 | 119.17397 | 8849 ft | 280 kts | 90° |
| 2026-04-27 09:20 | -5.29393 | 119.19347 | 8597 ft | 278 kts | 90° |
| 2026-04-27 09:21 | -5.29384 | 119.21273 | 8346 ft | 275 kts | 90° |
| 2026-04-27 09:21 | -5.29376 | 119.23215 | 8027 ft | 275 kts | 90° |
| 2026-04-27 09:21 | -5.29368 | 119.25111 | 7723 ft | 275 kts | 90° |
| 2026-04-27 09:21 | -5.29360 | 119.27048 | 7455 ft | 273 kts | 90° |
| 2026-04-27 09:22 | -5.29353 | 119.28952 | 7183 ft | 272 kts | 90° |
| 2026-04-27 09:22 | -5.29345 | 119.30824 | 6916 ft | 271 kts | 89° |
| 2026-04-27 09:22 | -5.29337 | 119.32713 | 6645 ft | 270 kts | 89° |
| 2026-04-27 09:22 | -5.29329 | 119.34598 | 6374 ft | 270 kts | 89° |
| 2026-04-27 09:23 | -5.29321 | 119.36476 | 6097 ft | 269 kts | 89° |
| 2026-04-27 09:23 | -5.29313 | 119.38349 | 5830 ft | 268 kts | 89° |
| 2026-04-27 09:23 | -5.29305 | 119.40196 | 5682 ft | 261 kts | 89° |
| 2026-04-27 09:23 | -5.29019 | 119.41951 | 5514 ft | 254 kts | 62° |
| 2026-04-27 09:24 | -5.27883 | 119.43253 | 5365 ft | 246 kts | 38° |
| 2026-04-27 09:24 | -5.26556 | 119.44266 | 5295 ft | 232 kts | 35° |
| 2026-04-27 09:24 | -5.25254 | 119.45108 | 5198 ft | 214 kts | 30° |
| 2026-04-27 09:24 | -5.24019 | 119.45826 | 5092 ft | 197 kts | 30° |
| 2026-04-27 09:25 | -5.22861 | 119.46493 | 4933 ft | 188 kts | 30° |
| 2026-04-27 09:25 | -5.21735 | 119.47145 | 4633 ft | 187 kts | 30° |
| 2026-04-27 09:25 | -5.20606 | 119.47799 | 4308 ft | 187 kts | 30° |
| 2026-04-27 09:25 | -5.19485 | 119.48450 | 4000 ft | 185 kts | 30° |
| 2026-04-27 09:26 | -5.18376 | 119.49093 | 3665 ft | 186 kts | 30° |
| 2026-04-27 09:26 | -5.17236 | 119.49755 | 3161 ft | 190 kts | 30° |
| 2026-04-27 09:26 | -5.16096 | 119.50420 | 2662 ft | 190 kts | 30° |
| 2026-04-27 09:26 | -5.14934 | 119.51094 | 2116 ft | 193 kts | 30° |
| 2026-04-27 09:27 | -5.13829 | 119.51734 | 1869 ft | 175 kts | 30° |
| 2026-04-27 09:27 | -5.12781 | 119.52330 | 1424 ft | 170 kts | 29° |
| 2026-04-27 09:27 | -5.11774 | 119.52928 | 951 ft | 168 kts | 33° |
| 2026-04-27 09:27 | -5.10833 | 119.53508 | 712 ft | 150 kts | 29° |
| 2026-04-27 09:28 | -5.09916 | 119.53994 | 363 ft | 150 kts | 30° |
| 2026-04-27 09:28 | -5.09034 | 119.54511 | 62 ft | 141 kts | 32° |
| 2026-04-27 09:28 | -5.08295 | 119.54944 | 37 ft | 97 kts | 30° |
| 2026-04-27 09:28 | -5.07903 | 119.55169 | 40 ft | 34 kts | 30° |
| 2026-04-27 09:29 | -5.07727 | 119.55241 | 41 ft | 15 kts | 341° |
| 2026-04-27 09:29 | -5.07667 | 119.55164 | 40 ft | 14 kts | 301° |
| 2026-04-27 09:29 | -5.07619 | 119.55082 | 40 ft | 13 kts | 300° |
| 2026-04-27 09:29 | -5.07583 | 119.55000 | 40 ft | 13 kts | 274° |
| 2026-04-27 09:30 | -5.07605 | 119.54916 | 40 ft | 13 kts | 232° |
| 2026-04-27 09:30 | -5.07676 | 119.54869 | 40 ft | 12 kts | 210° |
| 2026-04-27 09:30 | -5.07735 | 119.54830 | 40 ft | 7 kts | 238° |
| 2026-04-27 09:30 | -5.07734 | 119.54813 | 40 ft | 1 kts | 290° |
| 2026-04-27 09:31 | -5.07730 | 119.54804 | 40 ft | 2 kts | 296° |
| 2026-04-27 09:31 | -5.07722 | 119.54789 | 40 ft | 3 kts | 297° |
| 2026-04-27 09:31 | -5.07715 | 119.54777 | 40 ft | 0 kts | 300° |